Latest Coastal Weather Observations for Albany Airport

IDW60701

Issued at 12:03 pm WST Friday 24 February 2017 (issued every 10 minutes, with the page automatically refreshed every 10 minutes)

About coastal observations | Map of coastal stations | Coastal observations for WA | Marine services | Other Formats
Station Details ID: 009999 Name: ALBANY AIRPORT Lat: -34.94 Lon: 117.82 Height: 68.4 m
Data from the previous 72 hours. | See also: Recent months at Albany Airport
Date/Time
WST
Temp
°C
Wind Pressure Rain since
9am
mm
Weather Cloud Vis
km
Sea
Height
m
Swell
Dir  Spd
kts
Gust
kts
hPa Trend Height
m
Period
s
Dir
24/11:30am 26.3 ENE 10 16 1023.6 - 0.0 - - 10 - - - -
24/11:00am 25.9 ENE 11 15 1024.1 - 0.0 - - 10 - - - -
24/10:30am 24.5 NE 11 15 1024.6 - 0.0 - - 10 - - - -
24/10:00am 23.6 ENE 11 14 1024.9 - 0.0 - - 10 - - - -
24/09:30am 22.8 ENE 11 17 1025.4 - 0.0 - Mostly clear 10 - - - -
24/09:00am 21.7 NE 11 14 1025.6 - 0.0 - Mostly clear 10 - - - -
24/08:30am 20.2 ENE 11 15 1025.9 - 0.0 - Mostly clear 10 - - - -
24/08:00am 18.5 ENE 11 15 1026.1 - 0.0 - Mostly cloudy 10 - - - -
24/07:30am 18.0 ENE 11 16 1026.2 - 0.0 - Mostly cloudy 10 - - - -
24/07:00am 17.4 ENE 11 17 1026.2 - 0.0 - Mostly cloudy 10 - - - -
24/06:52am 17.3 ENE 11 16 1026.2 - 0.0 - Cloudy 10 - - - -
24/06:30am 17.1 NE 10 14 1026.1 - 0.0 - Cloudy 10 - - - -
24/06:00am 16.9 ENE 8 13 1025.6 - 0.0 - Cloudy 10 - - - -
24/05:30am 17.0 ENE 10 13 1025.5 - 0.0 - Cloudy 10 - - - -
24/05:00am 17.1 ENE 11 16 1025.2 - 0.0 - Cloudy 10 - - - -
24/04:30am 17.2 ENE 10 14 1025.0 - 0.0 - Cloudy 10 - - - -
24/04:00am 17.2 ENE 10 14 1025.0 - 0.0 - Cloudy 10 - - - -
24/03:30am 17.1 ENE 13 17 1024.9 - 0.0 - Cloudy 10 - - - -
24/03:00am 17.0 ENE 11 15 1024.8 - 0.0 - Cloudy 10 - - - -
24/02:30am 16.9 ENE 11 15 1025.0 - 0.0 - Cloudy 10 - - - -
24/02:00am 16.8 ENE 11 17 1025.1 - 0.0 - Cloudy 10 - - - -
24/01:30am 16.8 ENE 9 11 1025.2 - 0.0 - Cloudy 10 - - - -
24/01:00am 16.8 ENE 10 13 1025.3 - 0.0 - Cloudy 10 - - - -
24/12:30am 16.8 ENE 13 16 1025.6 - 0.0 - Cloudy 10 - - - -
24/12:00am 16.7 ENE 10 13 1025.5 - 0.0 - Cloudy 10 - - - -
 
Date/Time
WST
Temp
°C
Wind Pressure Rain since
9am
mm
Weather Cloud Vis
km
Sea
Height
m
Swell
Dir  Spd
kts
Gust
kts
hPa Trend Height
m
Period
s
Dir
23/11:30pm 16.7 E 7 11 1025.6 - 0.0 - Cloudy 10 - - - -
23/11:00pm 16.8 E 9 13 1025.6 - 0.0 - Cloudy 10 - - - -
23/10:30pm 16.7 E 9 13 1025.7 - 0.0 - Cloudy 10 - - - -
23/10:00pm 16.8 E 9 15 1025.7 - 0.0 - Cloudy 10 - - - -
23/09:30pm 16.4 ESE 7 9 1025.9 - 0.0 - Cloudy 10 - - - -
23/09:00pm 16.1 ESE 6 7 1025.7 - 0.0 - Mostly cloudy 10 - - - -
23/08:30pm 15.7 ESE 7 8 1025.6 - 0.0 - Partly cloudy 10 - - - -
23/08:00pm 15.6 ESE 7 8 1025.2 - 0.0 - Partly cloudy 10 - - - -
23/07:30pm 16.1 ESE 8 10 1024.9 - 0.0 - - 10 - - - -
23/07:00pm 16.4 ESE 7 9 1024.5 - 0.0 - - 10 - - - -
23/06:30pm 17.2 ESE 11 15 1024.1 - 0.0 - - 10 - - - -
23/06:00pm 18.0 ESE 12 15 1023.5 - 0.0 - - 10 - - - -
23/05:30pm 18.5 SE 13 16 1023.3 - 0.0 - - 10 - - - -
23/05:00pm 19.1 SE 11 15 1023.1 - 0.0 - - 10 - - - -
23/04:30pm 19.9 ESE 12 15 1022.9 - 0.0 - - 10 - - - -
23/04:00pm 20.6 SE 11 15 1022.5 - 0.0 - - 10 - - - -
23/03:30pm 20.4 ESE 12 16 1022.4 - 0.0 - - 10 - - - -
23/03:00pm 21.7 SE 12 15 1022.2 - 0.0 - - 10 - - - -
23/02:30pm 21.8 SE 12 15 1022.4 - 0.0 - - 10 - - - -
23/02:00pm 22.4 SE 10 12 1022.4 - 0.0 - Mostly clear 10 - - - -
23/01:30pm 24.1 N 5 9 1022.5 - 0.0 - Mostly clear 10 - - - -
23/01:00pm 23.5 N 5 8 1022.7 - 0.0 - Mostly clear 10 - - - -
23/12:30pm 22.9 E 4 6 1022.8 - 0.0 - Mostly clear 10 - - - -
23/12:00pm 21.6 E 4 8 1023.0 - 0.0 - Mostly clear 10 - - - -
23/11:30am 21.6 WNW 4 7 1023.4 - 0.0 - Mostly clear 10 - - - -
23/11:00am 21.5 NNW 5 8 1023.8 - 0.0 - Mostly clear 10 - - - -
23/10:30am 20.5 N 4 7 1023.9 - 0.0 - Partly cloudy 10 - - - -
23/10:00am 19.5 W 5 8 1024.1 - 0.0 - Mostly cloudy 10 - - - -
23/09:30am 19.2 W 4 6 1024.0 - 0.0 - Mostly cloudy 10 - - - -
23/09:00am 18.3 WNW 6 8 1023.9 - 0.2 - Mostly cloudy 10 - - - -
23/08:30am 18.5 NW 5 7 1023.7 - 0.2 - Mostly clear 10 - - - -
23/08:00am 16.8 WNW 5 6 1023.6 - 0.2 - Mostly clear 10 - - - -
23/07:30am 15.6 WNW 5 6 1023.6 - 0.2 - Mostly clear 10 - - - -
23/07:00am 14.7 NW 4 5 1023.3 - 0.2 - Mostly cloudy 10 - - - -
23/06:30am 14.0 NW 3 4 1023.0 - 0.2 - Cloudy 10 - - - -
23/06:00am 13.6 NW 5 6 1022.5 - 0.2 - Cloudy 10 - - - -
23/05:30am 13.4 NNW 4 5 1022.3 - 0.2 - Cloudy 10 - - - -
23/05:00am 13.3 NNW 4 5 1022.0 - 0.2 - Cloudy 10 - - - -
23/04:30am 13.1 NW 4 5 1021.8 - 0.2 - Partly cloudy 10 - - - -
23/04:00am 13.2 NW 5 5 1021.6 - 0.2 - Cloudy 10 - - - -
23/03:30am 12.3 WNW 4 5 1021.3 - 0.2 - Partly cloudy 10 - - - -
23/03:00am 11.9 NW 5 6 1020.9 - 0.2 - Mostly clear 10 - - - -
23/02:30am 12.3 NW 4 5 1021.0 - 0.2 - Partly cloudy 10 - - - -
23/02:00am 11.9 N 3 5 1021.2 - 0.2 - Cloudy 10 - - - -
23/01:32am 10.9 N 4 5 1021.1 - 0.2 - Partly cloudy 10 - - - -
23/01:30am 10.9 N 4 5 1021.1 - 0.2 - Partly cloudy 10 - - - -
23/01:00am 11.0 N 5 6 1020.9 - 0.2 - - 2 - - - -
23/12:30am 11.2 N 4 5 1020.9 - 0.2 - - 1 - - - -
23/12:00am 11.9 N 1 6 1020.9 - 0.2 - - 0.8 - - - -
 
Date/Time
WST
Temp
°C
Wind Pressure Rain since
9am
mm
Weather Cloud Vis
km
Sea
Height
m
Swell
Dir  Spd
kts
Gust
kts
hPa Trend Height
m
Period
s
Dir
22/11:46pm 12.7 CALM 0 2 1020.9 - 0.2 - Partly cloudy 6 - - - -
22/11:30pm 13.2 N 3 4 1021.0 - 0.2 - Partly cloudy 10 - - - -
22/11:00pm 14.6 W 3 5 1020.8 - 0.2 - - 10 - - - -
22/10:30pm 15.8 W 7 8 1020.8 - 0.2 - Partly cloudy 10 - - - -
22/10:00pm 16.1 W 7 8 1021.0 - 0.2 - Cloudy 10 - - - -
22/09:30pm 16.0 W 4 5 1021.2 - 0.2 - Partly cloudy 10 - - - -
22/09:00pm 15.7 W 5 6 1021.2 - 0.2 - Mostly clear 10 - - - -
22/08:30pm 16.0 WSW 5 7 1021.2 - 0.2 - - 10 - - - -
22/08:00pm 16.3 SW 9 13 1021.0 - 0.2 - - 10 - - - -
22/07:30pm 17.0 SW 10 14 1020.7 - 0.2 - Partly cloudy 10 - - - -
22/07:00pm 17.2 SW 12 16 1020.2 - 0.2 - - 10 - - - -
22/06:30pm 17.8 SW 13 18 1020.0 - 0.2 - Partly cloudy 10 - - - -
22/06:00pm 18.4 SW 12 17 1019.5 - 0.2 - - 10 - - - -
22/05:30pm 19.4 SW 12 16 1019.4 - 0.2 - Partly cloudy 10 - - - -
22/05:00pm 20.4 SW 15 19 1019.4 - 0.2 - Partly cloudy 10 - - - -
22/04:30pm 21.4 SW 13 17 1019.1 - 0.2 - Partly cloudy 10 - - - -
22/04:00pm 21.2 SW 15 20 1019.1 - 0.2 - Partly cloudy 10 - - - -
22/03:30pm 22.4 WSW 12 17 1018.8 - 0.2 - Mostly clear 10 - - - -
22/03:00pm 22.1 WSW 13 19 1018.7 - 0.2 - Mostly clear 10 - - - -
22/02:30pm 21.9 WSW 13 19 1018.9 - 0.2 - Partly cloudy 10 - - - -
22/02:00pm 22.4 W 13 19 1019.0 - 0.2 - Mostly cloudy 10 - - - -
22/01:30pm 21.1 WSW 12 17 1019.2 - 0.2 - Mostly cloudy 10 - - - -
22/01:00pm 20.9 WSW 11 17 1019.3 - 0.2 - Mostly clear 10 - - - -
22/12:30pm 19.7 W 10 12 1019.4 - 0.0 - Mostly clear 10 - - - -
22/12:00pm 19.2 W 11 15 1019.2 - 0.0 - Cloudy 10 - - - -
22/11:30am 18.0 WSW 11 16 1019.5 - 0.0 - Mostly clear 10 - - - -
22/11:21am 17.1 W 15 22 1019.6 - 0.0 Showers Mostly clear 6 - - - -
22/11:00am 18.1 W 11 15 1019.5 - 0.0 - Mostly clear 10 - - - -
22/10:30am 19.5 W 8 11 1019.4 - 0.0 - Partly cloudy 10 - - - -
22/10:00am 16.3 WSW 11 15 1019.6 - 0.0 Showers Mostly cloudy 8 - - - -
22/09:30am 17.3 W 9 12 1019.4 - 0.0 - Mostly clear 10 - - - -
22/09:21am 16.2 W 8 11 1019.4 - 0.0 - Mostly clear 10 - - - -
22/09:07am 15.9 WNW 12 14 1019.3 - 0.0 Showers Mostly clear 5 - - - -
22/09:00am 16.6 WNW 10 14 1019.1 - 1.4 - Cloudy 8 - - - -
22/08:30am 16.0 WNW 11 14 1019.1 - 1.4 - Mostly clear 10 - - - -
22/08:00am 14.9 NW 7 10 1019.0 - 1.4 - Mostly clear 10 - - - -
22/07:30am 13.9 NW 7 9 1018.9 - 1.4 - Mostly clear 10 - - - -
22/07:03am 13.9 NW 8 10 1018.6 - 1.2 Drizzle Partly cloudy 5 - - - -
22/07:00am 14.0 NW 8 10 1018.6 - 1.2 Drizzle Mostly clear 8 - - - -
22/06:30am 14.0 NW 6 8 1018.5 - 1.2 - Partly cloudy 10 - - - -
22/06:08am 13.8 W 5 7 1018.3 - 1.2 - Partly cloudy 10 - - - -
22/06:00am 13.8 W 7 7 1018.2 - 1.2 - Cloudy 7 - - - -
22/05:45am 14.2 WSW 11 15 1018.1 - 1.2 - Partly cloudy 6 - - - -
22/05:30am 14.7 W 7 9 1017.9 - 1.2 - Cloudy 10 - - - -
22/05:00am 14.8 W 7 10 1017.5 - 1.2 - Partly cloudy 10 - - - -
22/04:30am 14.7 W 7 11 1017.2 - 1.2 - Cloudy 10 - - - -
22/04:00am 14.5 WSW 9 14 1017.2 - 1.2 - Cloudy 10 - - - -
22/03:30am 14.9 WSW 7 9 1016.8 - 1.2 - Partly cloudy 10 - - - -
22/03:00am 14.9 W 7 15 1016.6 - 1.2 - Cloudy 10 - - - -
22/02:30am 14.8 W 6 7 1016.3 - 1.2 - Cloudy 10 - - - -
22/02:00am 14.7 WSW 8 10 1016.6 - 1.2 - Cloudy 10 - - - -
22/01:30am 14.7 WSW 8 11 1016.6 - 1.2 - Partly cloudy 10 - - - -
22/01:00am 14.9 WSW 9 13 1016.8 - 1.2 - Partly cloudy 10 - - - -
22/12:30am 15.0 WSW 9 11 1016.9 - 1.2 - Cloudy 10 - - - -
22/12:00am 15.1 W 8 11 1016.8 - 1.2 - Cloudy 10 - - - -
 
Date/Time
WST
Temp
°C
Wind Pressure Rain since
9am
mm
Weather Cloud Vis
km
Sea
Height
m
Swell
Dir  Spd
kts
Gust
kts
hPa Trend Height
m
Period
s
Dir
21/11:30pm 15.1 WSW 8 11 1016.8 - 1.2 - Partly cloudy 10 - - - -
21/11:00pm 15.1 WSW 9 12 1016.9 - 1.2 - Partly cloudy 10 - - - -
21/10:30pm 14.9 W 8 12 1017.0 - 1.2 - Partly cloudy 10 - - - -
21/10:00pm 15.0 WSW 10 13 1016.9 - 1.2 - Partly cloudy 10 - - - -
21/09:30pm 15.0 WSW 8 10 1016.9 - 1.2 - Partly cloudy 10 - - - -
21/09:00pm 15.0 WSW 9 14 1016.7 - 1.2 - Mostly cloudy 10 - - - -
21/08:30pm 15.2 SW 13 19 1016.6 - 1.2 - Partly cloudy 10 - - - -
21/08:00pm 15.2 SW 13 19 1016.3 - 1.2 - Cloudy 10 - - - -
21/07:30pm 15.0 WSW 13 21 1015.8 - 1.2 - Partly cloudy 10 - - - -
21/07:00pm 15.0 SW 13 18 1015.4 - 1.2 - Partly cloudy 10 - - - -
21/06:30pm 14.8 SW 15 21 1015.0 - 1.2 - Partly cloudy 10 - - - -
21/06:00pm 15.9 SW 15 22 1014.1 - 1.2 - Partly cloudy 10 - - - -
21/05:30pm 14.8 WSW 13 18 1014.1 - 1.2 - Partly cloudy 10 - - - -
21/05:17pm 14.0 WSW 15 25 1014.0 - 1.2 - Partly cloudy 10 - - - -
21/05:00pm 14.2 WSW 19 26 1013.8 - 1.2 - Partly cloudy 9 - - - -
21/04:46pm 16.4 SW 19 29 1013.3 - 1.2 - Partly cloudy 10 - - - -
21/04:30pm 17.3 WSW 18 27 1013.0 - 1.2 - Partly cloudy 10 - - - -
21/04:06pm 15.1 WSW 17 27 1012.9 - 1.2 - Partly cloudy 10 - - - -
21/04:00pm 15.6 WSW 18 25 1012.8 - 1.2 - Partly cloudy 10 - - - -
21/03:30pm 17.0 SW 21 32 1012.3 - 1.2 - Partly cloudy 10 - - - -
21/03:00pm 16.2 WSW 20 30 1011.6 - 1.2 - Cloudy 10 - - - -
21/02:37pm 16.7 WSW 19 29 1011.6 - 1.2 - Partly cloudy 10 - - - -
21/02:30pm 16.6 WSW 17 24 1011.3 - 1.2 - Mostly clear 10 - - - -
21/02:04pm 16.3 WSW 23 33 1011.3 - 1.2 - Partly cloudy 10 - - - -
21/02:00pm 16.7 WSW 21 30 1011.2 - 1.2 - Partly cloudy 10 - - - -
21/01:30pm 17.7 WSW 24 34 1011.0 - 1.2 - Mostly clear 10 - - - -
21/01:03pm 16.6 SW 24 34 1010.7 - 1.2 - Partly cloudy 10 - - - -
21/01:00pm 16.9 SW 27 34 1010.6 - 1.2 - Partly cloudy 10 - - - -
21/12:33pm 17.4 SW 17 27 1010.3 - 1.2 - Mostly clear 10 - - - -
21/12:29pm 16.1 SW 19 23 1010.3 - 1.2 - Mostly clear 10 - - - -

Other Formats:

Comma delimited format used in spreadsheet applications
http://www.bom.gov.au/fwo/IDW60701/IDW60701.94802.axf

JavaScript Object Notation format (JSON) in row-major order
http://www.bom.gov.au/fwo/IDW60701/IDW60701.94802.json